Airfield :
LOGIN :

Register | Disclaimer

   EN    FR    IT 

 










Legend :    VFR   Marginal VFR   IFR   Intensive IFR   Very Intensive IFR
Visi :
Ceiling :
>= 8 km
>= 3000ft
5 to 8 km
1000 to 3000 ft
1500m to 5 km
500 to 1000 ft
800 to 1500m
200 to 500 ft
< 800m
< 200 ft
Symbols :   Thunderstorms  Fog  Heavy snow  Heavy precipitations  Wind > 20 kt
SIGMETs :     Misc.  Thunderstorms  Icing  Turbulence  Mountain Waves  Volcanic Ashes






- Airport Elevation : 1273 ft
- IATA code : LJU


LJLJ - Ljubljana

CURRENT METAR :
  • 240500Z 14002KT 4000 -RA BR FEW001 SCT003 BKN012 03/02 Q1006 NOSIG

EXPIRED METARs :
  • 240430Z VRB01KT 4000 -RA BR FEW001 BKN003 BKN012 03/02 Q1006 NOSIG
  • 240400Z 13004KT 4000 -RA BR FEW001 BKN004 BKN027 03/02 Q1006 NOSIG
  • 240330Z 08003KT 4000 -RA BR SCT001 BKN004 OVC015 03/03 Q1006 NOSIG
  • 240300Z 10003KT 4000 -RA BR SCT001 BKN004 OVC010 03/03 Q1006 NOSIG
  • 240230Z VRB02KT 4000 -RA BR SCT001 OVC003 03/03 Q1006 NOSIG
  • 240200Z 00000KT 4000 -RA BR SCT001 OVC003 03/03 Q1006 NOSIG
  • 240130Z VRB01KT 4000 -RA BR SCT001 OVC003 03/03 Q1007 NOSIG
  • 240100Z VRB01KT 3000 -RA BR SCT001 OVC003 03/03 Q1007 NOSIG
  • 240030Z 13003KT 3000 -RA BR SCT001 OVC003 03/03 Q1007 NOSIG
  • 240000Z 12002KT 4000 BR FEW001 BKN003 OVC033 03/03 Q1007 NOSIG

TAF AMD TAF LJLJ
Valid from the 24 at 02:00 until the 25 at 00:00 UTC


240212Z 2402/2500 08003KT 9999 -RA FEW010 SCT020 OVC030
TEMPO 2402/2407 4000 -RA BR SCT001 OVC003
BECMG 2407/2409 NSW
TEMPO 2409/2500 -RA



MET'MAP, your aeronautical weather chart ! - Copyright ORBIFLY December 2007 - Disclaimer

ORBIFLY MET'MAP TEAM :

Programming & Development : Alexandra Zaïnal
Original concept : Baudouin d'Aumeries
Technical & hardware support : Manuel Goepfert
Assistance : Marc-Olivier Méhu




SOURCES & CREDITS :

   NOAA